ADDS METAR Data INFO
IDs: Format: Raw Decoded Include TAF

Data at: 1136 UTC 17 Jul 2018

KSTF 171135Z AUTO 00000KT 5SM BR CLR 21/21 A3005 RMK AO2
KSTF 171115Z AUTO 00000KT 4SM BR CLR 21/21 A3005 RMK AO2
KSTF 171055Z AUTO 00000KT 4SM BR SCT049 SCT090 21/21 A3004 RMK AO2
KSTF 171035Z AUTO 18003KT 2SM BR OVC049 21/21 A3003 RMK AO2
KSTF 171015Z AUTO 00000KT 1SM BR BKN047 21/21 A3004 RMK AO2
KSTF 170955Z AUTO 19003KT 1/2SM FG VV005 21/20 A3003 RMK AO2
KSTF 170935Z AUTO 00000KT 5SM BR CLR 21/21 A3003 RMK AO2
KSTF 170915Z AUTO 00000KT 4SM BR CLR 21/21 A3002 RMK AO2
KSTF 170855Z AUTO 00000KT 5SM BR CLR 21/21 A3002 RMK AO2
KSTF 170835Z AUTO 00000KT 5SM BR CLR 21/21 A3002 RMK AO2
KSTF 170815Z AUTO 00000KT 5SM BR CLR 22/21 A3001 RMK AO2
KSTF 170755Z AUTO 00000KT 4SM BR CLR 22/21 A3001 RMK AO2
KSTF 170735Z AUTO 00000KT 10SM CLR 22/21 A3001 RMK AO2
KSTF 170715Z AUTO 00000KT 10SM CLR 22/22 A3001 RMK AO2
KSTF 170655Z AUTO 00000KT 10SM CLR 22/21 A3001 RMK AO2
KSTF 170635Z AUTO 00000KT 10SM CLR 22/22 A3001 RMK AO2
KSTF 170615Z AUTO 00000KT 10SM CLR 22/22 A3002 RMK AO2
KSTF 170555Z AUTO 00000KT 10SM CLR 22/22 A3001 RMK AO2
KSTF 170535Z AUTO 00000KT 10SM CLR 22/21 A3001 RMK AO2
KSTF 170515Z AUTO 00000KT 7SM CLR 22/22 A3001 RMK AO2
KSTF 170455Z AUTO 00000KT 10SM CLR 22/22 A3001 RMK AO2
KSTF 170435Z AUTO 00000KT 10SM CLR 22/22 A3002 RMK AO2
KSTF 170415Z AUTO 00000KT 10SM CLR 22/22 A3003 RMK AO2
KSTF 170355Z AUTO 00000KT 10SM CLR 22/21 A3003 RMK AO2
KSTF 170335Z AUTO 00000KT 10SM CLR 22/22 A3002 RMK AO2
KSTF 170315Z AUTO 00000KT 10SM CLR 23/22 A3002 RMK AO2
KSTF 170255Z AUTO 00000KT 10SM CLR 23/22 A3003 RMK AO2
KSTF 170235Z AUTO 00000KT 10SM SCT042 23/22 A3003 RMK AO2
KSTF 170215Z AUTO 20003KT 10SM CLR 23/22 A3002 RMK AO2
KSTF 170155Z AUTO 23003KT 10SM CLR 23/22 A3002 RMK AO2
KSTF 170135Z AUTO 25004KT 10SM CLR 24/22 A3003 RMK AO2
KSTF 170115Z AUTO 23004KT 10SM CLR 24/22 A3002 RMK AO2
KSTF 170055Z AUTO 00000KT 10SM CLR 24/22 A3000 RMK AO2
KSTF 170035Z AUTO 23003KT 10SM CLR 25/22 A3000 RMK AO2
KSTF 170015Z AUTO 21004KT 10SM CLR 25/22 A3001 RMK AO2
KSTF 162355Z AUTO 00000KT 10SM CLR 25/22 A3001 RMK AO2
KSTF 162335Z AUTO 22004KT 10SM CLR 25/22 A3001 RMK AO2
KSTF 162315Z AUTO 23006KT 10SM CLR 25/22 A2999 RMK AO2
KSTF 162255Z AUTO 21004KT 10SM CLR 26/22 A2999 RMK AO2
KSTF 162235Z AUTO 20006KT 10SM CLR 26/23 A3000 RMK AO2
KSTF 162215Z AUTO 20007KT 10SM CLR 26/23 A3000 RMK AO2
KSTF 162155Z AUTO 19006KT 10SM SCT026 SCT033 SCT040 26/23 A3000 RMK AO2
KSTF 162135Z AUTO 16008KT 10SM BKN026 26/23 A3000 RMK AO2
KSTF 162115Z AUTO 18006KT 10SM SCT028 SCT035 26/23 A2999 RMK AO2
KSTF 162055Z AUTO 21004KT 10SM SCT036 SCT042 SCT070 27/23 A3000 RMK AO2
KSTF 162035Z AUTO 21007KT 10SM SCT033 SCT041 BKN070 27/23 A2999 RMK AO2
KSTF 162015Z AUTO 18005KT 10SM SCT031 SCT039 30/25 A2997 RMK AO2
KSTF 161955Z AUTO 18005KT 10SM SCT031 BKN037 32/26 A2997 RMK AO2
KSTF 161935Z AUTO 13003KT 10SM SCT028 BKN034 31/25 A2998 RMK AO2
KSTF 161915Z AUTO 00000KT 10SM SCT028 SCT034 32/25 A3000 RMK AO2
KSTF 161855Z AUTO 10003KT 10SM SCT024 SCT035 SCT047 31/25 A3001 RMK AO2
KSTF 161835Z AUTO 08005KT 10SM SCT024 OVC035 31/25 A3002 RMK AO2
KSTF 161815Z AUTO 00000KT 10SM SCT024 SCT035 SCT043 32/25 A3003 RMK AO2
KSTF 161755Z AUTO 13003KT 10SM SCT024 31/25 A3003 RMK AO2
KSTF 161735Z AUTO 00000KT 10SM SCT022 31/25 A3004 RMK AO2
KSTF 161715Z AUTO 00000KT 10SM CLR 30/25 A3005 RMK AO2
KSTF 161655Z AUTO 00000KT 10SM SCT024 SCT060 SCT090 29/25 A3005 RMK AO2
KSTF 161635Z AUTO 01003KT 10SM SCT018 SCT022 BKN060 29/25 A3005 RMK AO2
KSTF 161615Z AUTO 35003KT 10SM BKN022 BKN060 30/25 A3005 RMK AO2
KSTF 161555Z AUTO 00000KT 10SM SCT060 SCT070 SCT100 30/25 A3005 RMK AO2
KSTF 161535Z AUTO 00000KT 10SM SCT060 SCT100 30/25 A3005 RMK AO2
KSTF 161515Z AUTO 00000KT 10SM SCT100 29/25 A3005 RMK AO2
KSTF 161455Z AUTO 18003KT 10SM CLR 29/25 A3005 RMK AO2
KSTF 161435Z AUTO 17003KT 10SM CLR 28/25 A3005 RMK AO2
KSTF 161415Z AUTO 18005KT 10SM CLR 27/24 A3005 RMK AO2
KSTF 161355Z AUTO 20004KT 10SM CLR 26/24 A3004 RMK AO2
KSTF 161335Z AUTO 00000KT 10SM CLR 25/24 A3004 RMK AO2
KSTF 161315Z AUTO 00000KT 10SM CLR 24/23 A3004 RMK AO2
KSTF 161255Z AUTO 00000KT 10SM CLR 24/23 A3004 RMK AO2
KSTF 161235Z AUTO 00000KT 10SM CLR 23/23 A3004 RMK AO2
KSTF 161215Z AUTO 00000KT 10SM CLR 23/22 A3004 RMK AO2
KSTF 161155Z AUTO 00000KT 5SM BR CLR 23/22 A3004 RMK AO2
KSTF 161135Z AUTO 00000KT 3SM BR CLR 22/22 A3003 RMK AO2
KSTF 161115Z AUTO 00000KT 4SM BR SCT100 22/22 A3002 RMK AO2
KSTF 161055Z AUTO 00000KT 3SM BR 22/21 A3002 RMK AO2 SKY OBSCURED
KSTF 161035Z AUTO 00000KT 4SM BR BKN100 22/21 A3002 RMK AO2
KSTF 161015Z AUTO 00000KT 4SM BR BKN100 22/22 A3002 RMK AO2
KSTF 160955Z AUTO 00000KT 4SM BR SCT100 22/22 A3002 RMK AO2
KSTF 160935Z AUTO 00000KT 5SM BR SCT100 22/22 A3001 RMK AO2
KSTF 160915Z AUTO 00000KT 4SM BR SCT100 22/22 A3002 RMK AO2
KSTF 160855Z AUTO 00000KT 5SM BR SCT100 22/22 A3002 RMK AO2
KSTF 160835Z AUTO 00000KT 1/4SM FG BKN100 22/22 A3002 RMK AO2
KSTF 160815Z AUTO 00000KT 1 3/4SM BR BKN100 22/22 A3002 RMK AO2 VIS 1/2V3
KSTF 160755Z AUTO 00000KT 2 1/2SM BR SCT110 22/22 A3002 RMK AO2
KSTF 160735Z AUTO 00000KT 1 3/4SM BR VV007 22/22 A3002 RMK AO2
KSTF 160715Z AUTO 00000KT 3SM BR CLR 23/22 A3002 RMK AO2
KSTF 160655Z AUTO 00000KT 7SM CLR 23/22 A3002 RMK AO2
KSTF 160635Z AUTO 00000KT 5SM BR CLR 23/22 A3002 RMK AO2
KSTF 160615Z AUTO 00000KT 7SM CLR 23/22 A3002 RMK AO2
KSTF 160555Z AUTO 00000KT 7SM CLR 23/22 A3002 RMK AO2
KSTF 160535Z AUTO 20005KT 5SM BR CLR 23/23 A3001 RMK AO2
KSTF 160515Z AUTO 00000KT 5SM BR CLR 23/23 A3003 RMK AO2
KSTF 160455Z AUTO 00000KT 7SM CLR 23/23 A3003 RMK AO2
KSTF 160435Z AUTO 20004KT 5SM BR CLR 23/23 A3003 RMK AO2
KSTF 160415Z AUTO 00000KT 5SM BR SCT110 23/23 A3005 RMK AO2
KSTF 160355Z AUTO 00000KT 5SM BR CLR 23/23 A3004 RMK AO2
KSTF 160335Z AUTO 00000KT 7SM CLR 23/23 A3005 RMK AO2
KSTF 160315Z AUTO 16003KT 7SM CLR 23/23 A3004 RMK AO2
KSTF 160255Z AUTO 00000KT 7SM CLR 23/23 A3004 RMK AO2
KSTF 160235Z AUTO 15004KT 7SM SCT100 24/23 A3004 RMK AO2
KSTF 160215Z AUTO 00000KT 5SM BR CLR 24/23 A3004 RMK AO2
KSTF 160155Z AUTO 13003KT 7SM CLR 24/23 A3003 RMK AO2 P0001
KSTF 160135Z AUTO 00000KT 4SM BR CLR 24/23 A3002 RMK AO2 P0001
KSTF 160115Z AUTO 00000KT 5SM BR CLR 25/23 A3003 RMK AO2
KSTF 160055Z AUTO 00000KT 5SM BR SCT034 SCT040 SCT046 25/23 A3002 RMK AO2
KSTF 160035Z AUTO 15004KT 5SM -RA SCT034 SCT040 SCT046 25/23 A3001 RMK AO2
KSTF 160015Z AUTO 00000KT 7SM -DZ SCT041 SCT047 BKN065 25/23 A3002 RMK AO2
KSTF 152355Z AUTO 00000KT 10SM RA SCT038 SCT046 BKN055 25/23 A3002 RMK AO2